sensor_id;sensor_type;location;lat;lon;timestamp;pressure;altitude;pressure_sealevel;temperature;humidity
72585;BME280;73873;40.084;32.908;2024-03-07T00:00:12;89310.25;;;2.35;86.86
72585;BME280;73873;40.084;32.908;2024-03-07T00:02:39;89305.16;;;2.41;87.47
72585;BME280;73873;40.084;32.908;2024-03-07T00:05:06;89296.75;;;2.68;85.76
72585;BME280;73873;40.084;32.908;2024-03-07T00:07:33;89303.09;;;2.92;84.46
72585;BME280;73873;40.084;32.908;2024-03-07T00:10:01;89296.41;;;3.00;84.11
72585;BME280;73873;40.084;32.908;2024-03-07T00:12:28;89297.00;;;3.04;83.63
72585;BME280;73873;40.084;32.908;2024-03-07T00:14:55;89297.53;;;2.90;84.26
72585;BME280;73873;40.084;32.908;2024-03-07T00:17:22;89305.91;;;2.98;83.69
72585;BME280;73873;40.084;32.908;2024-03-07T00:19:49;89299.69;;;3.13;82.37
72585;BME280;73873;40.084;32.908;2024-03-07T00:22:16;89300.81;;;3.25;82.84
72585;BME280;73873;40.084;32.908;2024-03-07T00:24:43;89293.44;;;3.42;82.12
72585;BME280;73873;40.084;32.908;2024-03-07T00:27:10;89291.44;;;3.55;80.70
72585;BME280;73873;40.084;32.908;2024-03-07T00:29:37;89297.75;;;3.67;80.40
72585;BME280;73873;40.084;32.908;2024-03-07T00:32:04;89291.59;;;3.61;80.40
72585;BME280;73873;40.084;32.908;2024-03-07T00:34:31;89289.28;;;3.63;80.35
72585;BME280;73873;40.084;32.908;2024-03-07T00:36:58;89282.56;;;3.71;79.75
72585;BME280;73873;40.084;32.908;2024-03-07T00:39:25;89284.19;;;3.68;79.79
72585;BME280;73873;40.084;32.908;2024-03-07T00:41:52;89285.28;;;3.58;79.94
72585;BME280;73873;40.084;32.908;2024-03-07T00:44:19;89278.56;;;3.57;79.93
72585;BME280;73873;40.084;32.908;2024-03-07T00:46:46;89283.25;;;3.53;80.22
72585;BME280;73873;40.084;32.908;2024-03-07T00:49:13;89287.88;;;3.49;80.86
72585;BME280;73873;40.084;32.908;2024-03-07T00:51:40;89277.63;;;3.42;80.59
72585;BME280;73873;40.084;32.908;2024-03-07T00:54:07;89278.09;;;3.50;80.73
72585;BME280;73873;40.084;32.908;2024-03-07T00:56:34;89273.19;;;3.30;80.97
72585;BME280;73873;40.084;32.908;2024-03-07T00:59:01;89284.78;;;3.10;81.83
72585;BME280;73873;40.084;32.908;2024-03-07T01:01:28;89281.41;;;3.10;81.84
72585;BME280;73873;40.084;32.908;2024-03-07T01:03:55;89281.94;;;3.27;81.78
72585;BME280;73873;40.084;32.908;2024-03-07T01:06:22;89284.63;;;3.36;80.73
72585;BME280;73873;40.084;32.908;2024-03-07T01:08:49;89282.00;;;3.36;80.96
72585;BME280;73873;40.084;32.908;2024-03-07T01:11:16;89282.00;;;3.36;80.60
72585;BME280;73873;40.084;32.908;2024-03-07T01:13:43;89278.00;;;3.31;81.22
72585;BME280;73873;40.084;32.908;2024-03-07T01:16:10;89272.25;;;3.15;81.62
72585;BME280;73873;40.084;32.908;2024-03-07T01:18:37;89283.56;;;3.02;81.90
72585;BME280;73873;40.084;32.908;2024-03-07T01:21:05;89285.91;;;3.00;82.45
72585;BME280;73873;40.084;32.908;2024-03-07T01:23:32;89288.56;;;3.09;82.21
72585;BME280;73873;40.084;32.908;2024-03-07T01:25:59;89295.53;;;3.25;81.89
72585;BME280;73873;40.084;32.908;2024-03-07T01:28:27;89291.84;;;3.23;81.42
72585;BME280;73873;40.084;32.908;2024-03-07T01:30:54;89293.59;;;3.17;81.47
72585;BME280;73873;40.084;32.908;2024-03-07T01:33:20;89298.97;;;3.13;81.61
72585;BME280;73873;40.084;32.908;2024-03-07T01:35:48;89306.19;;;3.00;82.06
72585;BME280;73873;40.084;32.908;2024-03-07T01:38:16;89298.00;;;2.98;82.69
72585;BME280;73873;40.084;32.908;2024-03-07T01:40:43;89304.69;;;2.90;83.12
72585;BME280;73873;40.084;32.908;2024-03-07T01:43:11;89302.03;;;3.11;82.84
72585;BME280;73873;40.084;32.908;2024-03-07T01:45:38;89305.59;;;3.18;82.39
72585;BME280;73873;40.084;32.908;2024-03-07T01:48:09;89304.72;;;3.21;82.39
72585;BME280;73873;40.084;32.908;2024-03-07T01:50:36;89298.41;;;3.18;82.65
72585;BME280;73873;40.084;32.908;2024-03-07T01:53:04;89296.28;;;3.26;81.61
72585;BME280;73873;40.084;32.908;2024-03-07T01:55:33;89303.91;;;3.33;81.90
72585;BME280;73873;40.084;32.908;2024-03-07T01:58:02;89304.22;;;3.35;81.37
72585;BME280;73873;40.084;32.908;2024-03-07T02:00:31;89303.59;;;3.31;81.69
72585;BME280;73873;40.084;32.908;2024-03-07T02:02:58;89304.22;;;3.35;81.64
72585;BME280;73873;40.084;32.908;2024-03-07T02:05:25;89309.47;;;3.35;81.47
72585;BME280;73873;40.084;32.908;2024-03-07T02:07:53;89307.44;;;3.08;81.00
72585;BME280;73873;40.084;32.908;2024-03-07T02:10:19;89304.13;;;2.73;83.19
72585;BME280;73873;40.084;32.908;2024-03-07T02:12:47;89306.75;;;2.73;83.67
72585;BME280;73873;40.084;32.908;2024-03-07T02:15:14;89312.59;;;2.55;84.72
72585;BME280;73873;40.084;32.908;2024-03-07T02:17:41;89307.44;;;2.51;85.74
72585;BME280;73873;40.084;32.908;2024-03-07T02:20:08;89306.19;;;2.56;86.45
72585;BME280;73873;40.084;32.908;2024-03-07T02:22:35;89311.72;;;2.36;86.86
72585;BME280;73873;40.084;32.908;2024-03-07T02:25:02;89315.66;;;2.06;89.35
72585;BME280;73873;40.084;32.908;2024-03-07T02:27:29;89318.63;;;1.95;89.75
72585;BME280;73873;40.084;32.908;2024-03-07T02:29:56;89322.09;;;1.92;90.74
72585;BME280;73873;40.084;32.908;2024-03-07T02:32:23;89327.09;;;2.12;89.50
72585;BME280;73873;40.084;32.908;2024-03-07T02:34:50;89327.22;;;2.09;89.90
72585;BME280;73873;40.084;32.908;2024-03-07T02:37:17;89324.78;;;2.27;88.93
72585;BME280;73873;40.084;32.908;2024-03-07T02:39:44;89336.44;;;2.26;89.00
72585;BME280;73873;40.084;32.908;2024-03-07T02:42:11;89321.84;;;2.25;89.22
72585;BME280;73873;40.084;32.908;2024-03-07T02:44:38;89333.56;;;2.33;89.27
72585;BME280;73873;40.084;32.908;2024-03-07T02:47:05;89334.03;;;2.06;89.46
72585;BME280;73873;40.084;32.908;2024-03-07T02:49:32;89341.50;;;2.08;90.35
72585;BME280;73873;40.084;32.908;2024-03-07T02:51:59;89344.22;;;2.04;90.51
72585;BME280;73873;40.084;32.908;2024-03-07T02:54:26;89343.72;;;1.84;91.29
72585;BME280;73873;40.084;32.908;2024-03-07T02:56:53;89343.50;;;1.78;92.08
72585;BME280;73873;40.084;32.908;2024-03-07T02:59:20;89349.09;;;1.80;93.05
72585;BME280;73873;40.084;32.908;2024-03-07T03:01:47;89342.66;;;2.07;91.63
72585;BME280;73873;40.084;32.908;2024-03-07T03:04:14;89349.97;;;2.37;90.20
72585;BME280;73873;40.084;32.908;2024-03-07T03:06:41;89353.44;;;2.34;90.70
72585;BME280;73873;40.084;32.908;2024-03-07T03:09:08;89348.03;;;2.50;90.05
72585;BME280;73873;40.084;32.908;2024-03-07T03:11:35;89346.09;;;2.29;89.31
72585;BME280;73873;40.084;32.908;2024-03-07T03:14:02;89351.28;;;1.94;90.47
72585;BME280;73873;40.084;32.908;2024-03-07T03:16:29;89348.66;;;1.94;91.32
72585;BME280;73873;40.084;32.908;2024-03-07T03:19:13;89356.84;;;1.84;92.79
72585;BME280;73873;40.084;32.908;2024-03-07T03:21:40;89358.63;;;1.87;92.78
72585;BME280;73873;40.084;32.908;2024-03-07T03:24:07;89352.44;;;1.93;92.74
72585;BME280;73873;40.084;32.908;2024-03-07T03:26:34;89347.16;;;2.19;91.72
72585;BME280;73873;40.084;32.908;2024-03-07T03:29:01;89356.66;;;2.51;89.84
72585;BME280;73873;40.084;32.908;2024-03-07T03:31:28;89347.44;;;2.68;89.10
72585;BME280;73873;40.084;32.908;2024-03-07T03:33:55;89354.66;;;2.90;87.85
72585;BME280;73873;40.084;32.908;2024-03-07T03:36:22;89362.72;;;2.95;86.62
72585;BME280;73873;40.084;32.908;2024-03-07T03:38:49;89360.56;;;3.03;86.94
72585;BME280;73873;40.084;32.908;2024-03-07T03:41:16;89357.50;;;3.04;85.90
72585;BME280;73873;40.084;32.908;2024-03-07T03:43:44;89360.56;;;3.03;85.99
72585;BME280;73873;40.084;32.908;2024-03-07T03:46:11;89359.31;;;3.07;85.79
72585;BME280;73873;40.084;32.908;2024-03-07T03:48:39;89362.84;;;3.13;85.78
72585;BME280;73873;40.084;32.908;2024-03-07T03:51:10;89358.47;;;2.76;84.75
72585;BME280;73873;40.084;32.908;2024-03-07T03:53:37;89371.50;;;2.32;87.53
72585;BME280;73873;40.084;32.908;2024-03-07T03:56:04;89371.13;;;2.21;89.42
72585;BME280;73873;40.084;32.908;2024-03-07T03:58:31;89367.97;;;2.26;89.45
72585;BME280;73873;40.084;32.908;2024-03-07T04:00:58;89368.78;;;2.23;90.29
72585;BME280;73873;40.084;32.908;2024-03-07T04:03:25;89373.44;;;2.19;91.53
72585;BME280;73873;40.084;32.908;2024-03-07T04:05:52;89367.03;;;2.07;92.09
72585;BME280;73873;40.084;32.908;2024-03-07T04:08:20;89372.78;;;2.15;92.04
72585;BME280;73873;40.084;32.908;2024-03-07T04:10:47;89364.09;;;2.18;92.68
72585;BME280;73873;40.084;32.908;2024-03-07T04:13:14;89369.34;;;1.67;93.67
72585;BME280;73873;40.084;32.908;2024-03-07T04:15:41;89365.78;;;1.74;94.89
72585;BME280;73873;40.084;32.908;2024-03-07T04:18:11;89364.53;;;1.91;94.98
72585;BME280;73873;40.084;32.908;2024-03-07T04:20:38;89366.31;;;1.81;94.12
72585;BME280;73873;40.084;32.908;2024-03-07T04:23:07;89377.34;;;1.76;94.88
72585;BME280;73873;40.084;32.908;2024-03-07T04:25:38;89372.41;;;1.91;94.59
72585;BME280;73873;40.084;32.908;2024-03-07T04:28:05;89371.97;;;2.05;94.85
72585;BME280;73873;40.084;32.908;2024-03-07T04:30:32;89375.50;;;2.24;94.59
72585;BME280;73873;40.084;32.908;2024-03-07T04:32:59;89382.44;;;2.43;93.66
72585;BME280;73873;40.084;32.908;2024-03-07T04:35:26;89386.28;;;2.51;92.45
72585;BME280;73873;40.084;32.908;2024-03-07T04:37:53;89390.09;;;2.50;92.17
72585;BME280;73873;40.084;32.908;2024-03-07T04:40:21;89386.28;;;2.51;92.25
72585;BME280;73873;40.084;32.908;2024-03-07T04:42:49;89386.22;;;2.77;90.90
72585;BME280;73873;40.084;32.908;2024-03-07T04:45:17;89392.81;;;2.94;90.52
72585;BME280;73873;40.084;32.908;2024-03-07T04:47:45;89396.50;;;3.19;89.22
72585;BME280;73873;40.084;32.908;2024-03-07T04:50:13;89386.84;;;3.37;88.27
72585;BME280;73873;40.084;32.908;2024-03-07T04:52:41;89396.63;;;3.37;87.59
72585;BME280;73873;40.084;32.908;2024-03-07T04:55:08;89393.97;;;3.59;86.74
72585;BME280;73873;40.084;32.908;2024-03-07T04:57:36;89388.25;;;3.51;85.37
72585;BME280;73873;40.084;32.908;2024-03-07T05:00:05;89401.78;;;2.84;87.30
72585;BME280;73873;40.084;32.908;2024-03-07T05:02:32;89400.38;;;2.70;89.50
72585;BME280;73873;40.084;32.908;2024-03-07T05:04:59;89404.97;;;2.79;89.79
72585;BME280;73873;40.084;32.908;2024-03-07T05:07:26;89401.84;;;2.71;90.16
72585;BME280;73873;40.084;32.908;2024-03-07T05:09:53;89415.72;;;2.59;91.38
72585;BME280;73873;40.084;32.908;2024-03-07T05:12:20;89412.31;;;2.37;92.89
72585;BME280;73873;40.084;32.908;2024-03-07T05:14:47;89411.34;;;2.43;93.43
72585;BME280;73873;40.084;32.908;2024-03-07T05:17:14;89418.19;;;2.28;95.23
72585;BME280;73873;40.084;32.908;2024-03-07T05:19:41;89417.47;;;2.02;97.19
72585;BME280;73873;40.084;32.908;2024-03-07T05:22:08;89416.41;;;2.12;97.74
72585;BME280;73873;40.084;32.908;2024-03-07T05:24:35;89418.50;;;1.92;97.82
72585;BME280;73873;40.084;32.908;2024-03-07T05:27:02;89411.38;;;1.92;99.94
72585;BME280;73873;40.084;32.908;2024-03-07T05:29:29;89421.34;;;1.97;99.98
72585;BME280;73873;40.084;32.908;2024-03-07T05:32:22;89425.34;;;2.15;99.36
72585;BME280;73873;40.084;32.908;2024-03-07T05:34:50;89407.03;;;2.24;98.79
72585;BME280;73873;40.084;32.908;2024-03-07T05:37:17;89417.75;;;2.42;98.30
72585;BME280;73873;40.084;32.908;2024-03-07T05:39:44;89424.91;;;2.54;97.44
72585;BME280;73873;40.084;32.908;2024-03-07T05:42:11;89427.28;;;2.74;96.27
72585;BME280;73873;40.084;32.908;2024-03-07T05:44:38;89434.72;;;2.89;94.80
72585;BME280;73873;40.084;32.908;2024-03-07T05:47:05;89437.00;;;2.99;93.04
72585;BME280;73873;40.084;32.908;2024-03-07T05:49:32;89439.81;;;3.05;90.75
72585;BME280;73873;40.084;32.908;2024-03-07T05:51:59;89431.91;;;3.05;88.91
72585;BME280;73873;40.084;32.908;2024-03-07T05:54:26;89436.75;;;3.06;89.40
72585;BME280;73873;40.084;32.908;2024-03-07T05:56:53;89428.75;;;3.32;89.63
72585;BME280;73873;40.084;32.908;2024-03-07T05:59:20;89435.56;;;3.42;89.43
72585;BME280;73873;40.084;32.908;2024-03-07T06:01:48;89440.47;;;3.53;88.91
72585;BME280;73873;40.084;32.908;2024-03-07T06:04:15;89436.91;;;3.68;87.16
72585;BME280;73873;40.084;32.908;2024-03-07T06:06:42;89439.28;;;3.76;87.13
72585;BME280;73873;40.084;32.908;2024-03-07T06:09:10;89446.88;;;3.95;87.65
72585;BME280;73873;40.084;32.908;2024-03-07T06:11:38;89437.31;;;4.20;87.27
72585;BME280;73873;40.084;32.908;2024-03-07T06:14:06;89449.44;;;4.48;86.33
72585;BME280;73873;40.084;32.908;2024-03-07T06:16:36;89440.09;;;4.66;85.91
72585;BME280;73873;40.084;32.908;2024-03-07T06:19:04;89450.53;;;4.69;83.37
72585;BME280;73873;40.084;32.908;2024-03-07T06:21:36;89459.94;;;4.79;83.73
72585;BME280;73873;40.084;32.908;2024-03-07T06:24:03;89450.56;;;4.78;80.98
72585;BME280;73873;40.084;32.908;2024-03-07T06:26:37;89460.50;;;4.74;80.45
72585;BME280;73873;40.084;32.908;2024-03-07T06:29:04;89450.59;;;4.88;81.94
72585;BME280;73873;40.084;32.908;2024-03-07T06:31:32;89453.25;;;4.97;80.42
72585;BME280;73873;40.084;32.908;2024-03-07T06:33:59;89448.09;;;5.11;81.20
72585;BME280;73873;40.084;32.908;2024-03-07T06:36:26;89458.38;;;5.19;80.50
72585;BME280;73873;40.084;32.908;2024-03-07T06:38:53;89455.25;;;4.93;77.25
72585;BME280;73873;40.084;32.908;2024-03-07T06:41:20;89458.78;;;4.90;77.39
72585;BME280;73873;40.084;32.908;2024-03-07T06:43:47;89461.19;;;4.56;79.37
72585;BME280;73873;40.084;32.908;2024-03-07T06:46:15;89457.38;;;4.57;80.31
72585;BME280;73873;40.084;32.908;2024-03-07T06:48:42;89470.22;;;4.46;79.06
72585;BME280;73873;40.084;32.908;2024-03-07T06:51:10;89466.69;;;4.40;79.94
72585;BME280;73873;40.084;32.908;2024-03-07T06:53:37;89465.63;;;4.28;81.34
72585;BME280;73873;40.084;32.908;2024-03-07T06:56:04;89460.69;;;4.40;81.91
72585;BME280;73873;40.084;32.908;2024-03-07T06:58:32;89457.75;;;4.78;82.88
72585;BME280;73873;40.084;32.908;2024-03-07T07:01:00;89467.59;;;4.87;79.57
72585;BME280;73873;40.084;32.908;2024-03-07T07:03:27;89472.81;;;4.68;78.95
72585;BME280;73873;40.084;32.908;2024-03-07T07:05:54;89472.41;;;4.88;80.60
72585;BME280;73873;40.084;32.908;2024-03-07T07:08:21;89465.72;;;5.05;79.86
72585;BME280;73873;40.084;32.908;2024-03-07T07:10:49;89471.75;;;4.66;77.96
72585;BME280;73873;40.084;32.908;2024-03-07T07:13:16;89471.56;;;4.51;80.09
72585;BME280;73873;40.084;32.908;2024-03-07T07:15:46;89475.97;;;4.54;79.07
72585;BME280;73873;40.084;32.908;2024-03-07T07:18:13;89481.97;;;4.54;81.04
72585;BME280;73873;40.084;32.908;2024-03-07T07:20:40;89478.25;;;4.34;80.77
72585;BME280;73873;40.084;32.908;2024-03-07T07:23:08;89474.13;;;4.33;80.09
72585;BME280;73873;40.084;32.908;2024-03-07T07:25:34;89485.06;;;4.53;80.04
72585;BME280;73873;40.084;32.908;2024-03-07T07:28:02;89486.88;;;4.74;80.56
72585;BME280;73873;40.084;32.908;2024-03-07T07:30:29;89484.59;;;4.86;80.91
72585;BME280;73873;40.084;32.908;2024-03-07T07:32:56;89477.81;;;4.84;79.89
72585;BME280;73873;40.084;32.908;2024-03-07T07:35:23;89468.81;;;5.22;79.15
72585;BME280;73873;40.084;32.908;2024-03-07T07:37:51;89465.00;;;5.23;76.03
72585;BME280;73873;40.084;32.908;2024-03-07T07:40:20;89470.31;;;5.51;76.64
72585;BME280;73873;40.084;32.908;2024-03-07T07:42:52;89465.47;;;5.49;77.00
72585;BME280;73873;40.084;32.908;2024-03-07T07:45:21;89469.13;;;5.70;75.88
72585;BME280;73873;40.084;32.908;2024-03-07T07:47:51;89466.47;;;5.79;74.20
72585;BME280;73873;40.084;32.908;2024-03-07T07:50:20;89467.78;;;5.75;74.11
72585;BME280;73873;40.084;32.908;2024-03-07T07:52:52;89467.78;;;5.93;74.67
72585;BME280;73873;40.084;32.908;2024-03-07T07:55:24;89469.28;;;5.94;71.79
72585;BME280;73873;40.084;32.908;2024-03-07T07:57:58;89469.69;;;5.92;71.33
72585;BME280;73873;40.084;32.908;2024-03-07T08:00:27;89462.81;;;5.95;67.87
72585;BME280;73873;40.084;32.908;2024-03-07T08:02:59;89461.75;;;5.83;65.70
72585;BME280;73873;40.084;32.908;2024-03-07T08:05:29;89468.53;;;5.84;66.02
72585;BME280;73873;40.084;32.908;2024-03-07T08:07:59;89471.16;;;5.57;64.81
72585;BME280;73873;40.084;32.908;2024-03-07T08:10:27;89473.22;;;5.62;66.24
72585;BME280;73873;40.084;32.908;2024-03-07T08:12:56;89472.94;;;5.69;67.60
72585;BME280;73873;40.084;32.908;2024-03-07T08:15:27;89479.97;;;5.72;64.95
72585;BME280;73873;40.084;32.908;2024-03-07T08:17:56;89484.97;;;5.61;65.05
72585;BME280;73873;40.084;32.908;2024-03-07T08:20:25;89481.88;;;5.62;65.38
72585;BME280;73873;40.084;32.908;2024-03-07T08:22:53;89485.53;;;5.74;67.10
72585;BME280;73873;40.084;32.908;2024-03-07T08:25:22;89488.50;;;5.85;67.52
72585;BME280;73873;40.084;32.908;2024-03-07T08:27:51;89484.53;;;5.99;65.57
72585;BME280;73873;40.084;32.908;2024-03-07T08:30:19;89490.09;;;5.83;66.73
72585;BME280;73873;40.084;32.908;2024-03-07T08:32:54;89493.88;;;5.18;71.98
72585;BME280;73873;40.084;32.908;2024-03-07T08:35:22;89502.41;;;4.72;77.90
72585;BME280;73873;40.084;32.908;2024-03-07T08:37:53;89491.66;;;4.57;79.08
72585;BME280;73873;40.084;32.908;2024-03-07T08:40:25;89501.13;;;4.46;78.19
72585;BME280;73873;40.084;32.908;2024-03-07T08:42:55;89499.13;;;4.50;79.94
72585;BME280;73873;40.084;32.908;2024-03-07T08:45:25;89498.88;;;4.66;79.22
72585;BME280;73873;40.084;32.908;2024-03-07T08:47:57;89502.16;;;4.79;76.22
72585;BME280;73873;40.084;32.908;2024-03-07T08:50:26;89509.75;;;4.68;75.26
72585;BME280;73873;40.084;32.908;2024-03-07T08:52:54;89504.72;;;4.61;75.77
72585;BME280;73873;40.084;32.908;2024-03-07T08:55:25;89501.28;;;4.42;78.31
72585;BME280;73873;40.084;32.908;2024-03-07T08:57:53;89509.63;;;4.41;77.61
72585;BME280;73873;40.084;32.908;2024-03-07T09:00:20;89513.16;;;4.47;78.41
72585;BME280;73873;40.084;32.908;2024-03-07T09:02:49;89517.28;;;4.57;78.00
72585;BME280;73873;40.084;32.908;2024-03-07T09:05:16;89518.47;;;4.56;76.15
72585;BME280;73873;40.084;32.908;2024-03-07T09:07:43;89528.53;;;4.17;79.79
72585;BME280;73873;40.084;32.908;2024-03-07T09:10:10;89518.84;;;3.92;79.47
72585;BME280;73873;40.084;32.908;2024-03-07T09:12:37;89531.72;;;3.90;80.43
72585;BME280;73873;40.084;32.908;2024-03-07T09:15:04;89533.06;;;3.95;80.88
72585;BME280;73873;40.084;32.908;2024-03-07T09:17:31;89531.66;;;4.03;79.90
72585;BME280;73873;40.084;32.908;2024-03-07T09:19:58;89528.41;;;3.99;80.29
72585;BME280;73873;40.084;32.908;2024-03-07T09:22:25;89526.31;;;3.94;79.68
72585;BME280;73873;40.084;32.908;2024-03-07T09:24:52;89534.78;;;3.89;78.82
72585;BME280;73873;40.084;32.908;2024-03-07T09:27:19;89534.78;;;3.89;78.80
72585;BME280;73873;40.084;32.908;2024-03-07T09:29:46;89526.59;;;3.87;78.92
72585;BME280;73873;40.084;32.908;2024-03-07T09:32:14;89535.91;;;3.79;77.56
72585;BME280;73873;40.084;32.908;2024-03-07T09:34:41;89527.63;;;3.89;77.57
72585;BME280;73873;40.084;32.908;2024-03-07T09:37:08;89529.41;;;4.14;78.13
72585;BME280;73873;40.084;32.908;2024-03-07T09:39:35;89531.47;;;4.19;74.65
72585;BME280;73873;40.084;32.908;2024-03-07T09:42:02;89528.38;;;4.21;74.78
72585;BME280;73873;40.084;32.908;2024-03-07T09:44:31;89525.84;;;4.08;74.52
72585;BME280;73873;40.084;32.908;2024-03-07T09:47:00;89523.22;;;4.08;75.63
72585;BME280;73873;40.084;32.908;2024-03-07T09:49:29;89523.81;;;4.12;76.35
72585;BME280;73873;40.084;32.908;2024-03-07T09:51:56;89523.84;;;4.21;75.56
72585;BME280;73873;40.084;32.908;2024-03-07T09:54:25;89532.19;;;4.20;73.82
72585;BME280;73873;40.084;32.908;2024-03-07T09:56:53;89531.16;;;4.17;73.62
72585;BME280;73873;40.084;32.908;2024-03-07T09:59:24;89526.44;;;4.12;73.78
72585;BME280;73873;40.084;32.908;2024-03-07T10:01:55;89523.84;;;4.21;74.59
72585;BME280;73873;40.084;32.908;2024-03-07T10:04:38;89521.53;;;4.23;73.90
72585;BME280;73873;40.084;32.908;2024-03-07T10:07:07;89518.81;;;4.36;74.46
72585;BME280;73873;40.084;32.908;2024-03-07T10:09:36;89519.31;;;4.44;73.54
72585;BME280;73873;40.084;32.908;2024-03-07T10:12:03;89517.56;;;4.50;72.37
72585;BME280;73873;40.084;32.908;2024-03-07T10:14:34;89512.94;;;4.63;74.33
72585;BME280;73873;40.084;32.908;2024-03-07T10:17:01;89515.94;;;4.83;74.24
72585;BME280;73873;40.084;32.908;2024-03-07T10:19:28;89505.88;;;5.00;72.22
72585;BME280;73873;40.084;32.908;2024-03-07T10:21:55;89506.44;;;4.86;71.96
72585;BME280;73873;40.084;32.908;2024-03-07T10:24:24;89507.16;;;4.87;72.08
72585;BME280;73873;40.084;32.908;2024-03-07T10:26:51;89507.22;;;5.05;72.77
72585;BME280;73873;40.084;32.908;2024-03-07T10:29:18;89506.38;;;5.26;72.05
72585;BME280;73873;40.084;32.908;2024-03-07T10:31:46;89500.97;;;5.57;72.99
72585;BME280;73873;40.084;32.908;2024-03-07T10:34:33;89506.84;;;5.80;71.35
72585;BME280;73873;40.084;32.908;2024-03-07T10:37:00;89499.94;;;6.10;72.06
72585;BME280;73873;40.084;32.908;2024-03-07T10:39:27;89511.63;;;6.36;70.38
72585;BME280;73873;40.084;32.908;2024-03-07T10:41:55;89511.59;;;6.54;70.41
72585;BME280;73873;40.084;32.908;2024-03-07T10:44:26;89501.84;;;6.70;69.43
72585;BME280;73873;40.084;32.908;2024-03-07T10:46:55;89506.75;;;6.95;69.34
72585;BME280;73873;40.084;32.908;2024-03-07T10:49:25;89501.09;;;7.11;68.90
72585;BME280;73873;40.084;32.908;2024-03-07T10:52:03;89501.66;;;7.39;68.39
72585;BME280;73873;40.084;32.908;2024-03-07T10:55:07;89500.47;;;7.40;66.23
72585;BME280;73873;40.084;32.908;2024-03-07T10:57:52;89503.88;;;7.41;65.09
72585;BME280;73873;40.084;32.908;2024-03-07T11:00:26;89494.91;;;7.38;64.51
72585;BME280;73873;40.084;32.908;2024-03-07T11:02:54;89489.09;;;7.49;65.72
72585;BME280;73873;40.084;32.908;2024-03-07T11:05:26;89489.88;;;7.64;65.54
72585;BME280;73873;40.084;32.908;2024-03-07T11:07:53;89488.56;;;7.84;65.41
72585;BME280;73873;40.084;32.908;2024-03-07T11:10:20;89494.13;;;7.86;61.64
72585;BME280;73873;40.084;32.908;2024-03-07T11:12:48;89476.25;;;7.57;61.13
72585;BME280;73873;40.084;32.908;2024-03-07T11:15:15;89480.41;;;7.25;59.89
72585;BME280;73873;40.084;32.908;2024-03-07T11:18:02;89473.88;;;7.11;59.99
72585;BME280;73873;40.084;32.908;2024-03-07T11:20:37;89480.47;;;7.16;60.78
72585;BME280;73873;40.084;32.908;2024-03-07T11:23:27;89483.97;;;7.22;60.46
72585;BME280;73873;40.084;32.908;2024-03-07T11:25:55;89477.84;;;7.06;60.33
72585;BME280;73873;40.084;32.908;2024-03-07T11:28:30;89485.78;;;6.40;62.46
72585;BME280;73873;40.084;32.908;2024-03-07T11:34:15;89485.78;;;6.40;63.16
72585;BME280;73873;40.084;32.908;2024-03-07T11:36:43;89486.31;;;6.53;63.45
72585;BME280;73873;40.084;32.908;2024-03-07T11:39:49;89478.75;;;6.28;61.70
72585;BME280;73873;40.084;32.908;2024-03-07T11:42:25;89492.91;;;5.97;61.95
72585;BME280;73873;40.084;32.908;2024-03-07T11:44:54;89486.44;;;5.80;62.37
72585;BME280;73873;40.084;32.908;2024-03-07T11:47:22;89487.91;;;6.00;62.26
72585;BME280;73873;40.084;32.908;2024-03-07T11:49:50;89478.13;;;6.42;63.56
72585;BME280;73873;40.084;32.908;2024-03-07T11:52:18;89478.50;;;7.25;62.05
72585;BME280;73873;40.084;32.908;2024-03-07T11:54:46;89485.22;;;6.27;61.60
72585;BME280;73873;40.084;32.908;2024-03-07T11:57:15;89478.69;;;6.46;59.44
72585;BME280;73873;40.084;32.908;2024-03-07T11:59:43;89470.16;;;6.51;61.29
72585;BME280;73873;40.084;32.908;2024-03-07T12:02:10;89464.56;;;6.59;62.50
72585;BME280;73873;40.084;32.908;2024-03-07T12:04:37;89469.09;;;6.91;62.82
72585;BME280;73873;40.084;32.908;2024-03-07T12:07:04;89472.69;;;7.12;59.20
72585;BME280;73873;40.084;32.908;2024-03-07T12:09:31;89475.25;;;6.22;62.78
72585;BME280;73873;40.084;32.908;2024-03-07T12:11:58;89473.22;;;5.89;65.61
72585;BME280;73873;40.084;32.908;2024-03-07T12:14:26;89474.84;;;5.68;65.23
72585;BME280;73873;40.084;32.908;2024-03-07T12:16:53;89480.25;;;5.65;65.05
72585;BME280;73873;40.084;32.908;2024-03-07T12:19:20;89471.75;;;5.70;65.20
72585;BME280;73873;40.084;32.908;2024-03-07T12:21:47;89474.13;;;5.59;66.65
72585;BME280;73873;40.084;32.908;2024-03-07T12:24:15;89473.53;;;5.55;65.53
72585;BME280;73873;40.084;32.908;2024-03-07T12:26:42;89473.38;;;5.58;66.80
72585;BME280;73873;40.084;32.908;2024-03-07T12:29:10;89479.97;;;5.63;67.38
72585;BME280;73873;40.084;32.908;2024-03-07T12:31:46;89468.81;;;6.05;68.39
72585;BME280;73873;40.084;32.908;2024-03-07T12:34:14;89468.91;;;6.29;65.93
72585;BME280;73873;40.084;32.908;2024-03-07T12:36:41;89468.84;;;6.47;65.23
72585;BME280;73873;40.084;32.908;2024-03-07T12:39:08;89465.28;;;6.59;62.29
72585;BME280;73873;40.084;32.908;2024-03-07T12:41:35;89463.44;;;6.41;62.03
72585;BME280;73873;40.084;32.908;2024-03-07T12:44:02;89466.09;;;6.41;64.52
72585;BME280;73873;40.084;32.908;2024-03-07T12:46:29;89460.25;;;6.19;64.42
72585;BME280;73873;40.084;32.908;2024-03-07T12:48:56;89468.16;;;6.28;66.76
72585;BME280;73873;40.084;32.908;2024-03-07T12:51:23;89462.47;;;6.20;65.41
72585;BME280;73873;40.084;32.908;2024-03-07T12:53:50;89470.94;;;6.43;65.54
72585;BME280;73873;40.084;32.908;2024-03-07T12:56:17;89465.69;;;6.24;64.50
72585;BME280;73873;40.084;32.908;2024-03-07T12:58:46;89465.81;;;6.30;64.98
72585;BME280;73873;40.084;32.908;2024-03-07T13:01:14;89464.38;;;6.20;65.34
72585;BME280;73873;40.084;32.908;2024-03-07T13:03:42;89456.91;;;6.09;65.90
72585;BME280;73873;40.084;32.908;2024-03-07T13:06:09;89464.72;;;6.04;64.76
72585;BME280;73873;40.084;32.908;2024-03-07T13:08:36;89467.63;;;6.06;65.79